Ocean Pearl — WDD4400 — position and weather

sailwx.info

Track history (hours):
 
Tides and Currents Weather Stations Pressure Air Temp Water Temp Dewpoint Dewpoint Depression Visibility Wind Speed Wind Dir Waves Ship Positions

Ocean Pearl

Owner: Ocean Traveler LLC, Wilmington, DE. More information available from US FCC via Universal Licensing System and Coast Guard Vessel Documentation Center.

Last reported at 2017-Nov-11 19:10 UTC. Time now 2017-Nov-20 04:02 UTC.
Position N 38°58' W 076°27'.
Warning: this ship's position is 8 days out of date.

Length 19 m; draft 2.1 m.

Type: Pleasure craft. MMSI: 367144240.

Date/timePositionNaut miles runAvg speedWind from/ knotsBaromVisibWave heightAir tempDewpointWater temp
2017-Nov-11 19:10N 38°58' W 076°27'2 8.2
2017-Nov-11 18:58N 38°58' W 076°25'29 7.8
2017-Nov-11 15:14N 39°23' W 076°05'2 7.9
2017-Nov-11 15:01N 39°23' W 076°03'4 7.4
2017-Nov-11 14:31N 39°23' W 075°58'3 6.9
2017-Nov-11 14:00N 39°22' W 075°53'0 0.0
2017-Nov-11 13:28N 39°22' W 075°53'0 0.0
2017-Nov-11 12:58N 39°22' W 075°53'0 0.0
2017-Nov-11 12:28N 39°22' W 075°53'0 0.0
2017-Nov-11 11:58N 39°22' W 075°53'0 0.0
2017-Nov-11 11:25N 39°22' W 075°53'0 0.0
2017-Nov-11 10:58N 39°22' W 075°53'0 0.0
2017-Nov-11 10:25N 39°22' W 075°53'0 0.0
2017-Nov-11 09:58N 39°22' W 075°53'0 0.0
2017-Nov-11 09:28N 39°22' W 075°53'0 0.0
2017-Nov-11 08:58N 39°22' W 075°53'0 0.0
2017-Nov-11 08:28N 39°22' W 075°53'0 0.0
2017-Nov-11 07:58N 39°22' W 075°53'0 0.0
2017-Nov-11 07:28N 39°22' W 075°53'0 0.0
2017-Nov-11 06:46N 39°22' W 075°53'0 0.0
2017-Nov-11 06:28N 39°22' W 075°53'0 0.0
2017-Nov-11 05:58N 39°22' W 075°53'0 0.0
2017-Nov-11 05:28N 39°22' W 075°53'0 0.0
2017-Nov-11 04:58N 39°22' W 075°53'0 0.0
2017-Nov-11 04:28N 39°22' W 075°53'0 0.0
2017-Nov-11 04:01N 39°22' W 075°53'0 0.0
2017-Nov-11 03:28N 39°22' W 075°53'0 0.0
2017-Nov-11 02:58N 39°22' W 075°53'0 0.0
2017-Nov-11 02:31N 39°22' W 075°53'0 0.0
2017-Nov-11 01:58N 39°22' W 075°53'0 0.0
2017-Nov-11 01:22N 39°22' W 075°53'0 0.0
2017-Nov-11 00:58N 39°22' W 075°53'0 0.0
2017-Nov-11 00:28N 39°22' W 075°53'0 0.0
2017-Nov-10 23:55N 39°22' W 075°53'0 0.0
2017-Nov-10 23:28N 39°22' W 075°53'0 0.0
2017-Nov-10 22:58N 39°22' W 075°53'0 0.0
2017-Nov-10 22:28N 39°22' W 075°53'0 0.0
2017-Nov-10 21:58N 39°22' W 075°53'2 3.4
2017-Nov-10 21:25N 39°22' W 075°56'2 3.5
2017-Nov-10 20:47N 39°22' W 075°53'0 0.1
2017-Nov-10 20:29N 39°22' W 075°53'0 0.0
2017-Nov-10 19:59N 39°22' W 075°53'0 0.0
2017-Nov-10 19:26N 39°22' W 075°53'0 0.0
2017-Nov-10 18:59N 39°22' W 075°53'0 0.1
2017-Nov-10 18:20N 39°22' W 075°53'0 0.0
2017-Nov-10 17:59N 39°22' W 075°53'0 0.4
2017-Nov-10 17:08N 39°22' W 075°53'0 0.0
2017-Nov-10 16:56N 39°22' W 075°53'0 0.0
2017-Nov-10 16:08N 39°22' W 075°53'0 0.0
2017-Nov-10 15:59N 39°22' W 075°53'0 0.0
2017-Nov-10 15:20N 39°22' W 075°53'0 0.0
2017-Nov-10 14:44N 39°22' W 075°53'0 0.0
2017-Nov-10 14:14N 39°22' W 075°53'0 0.0
2017-Nov-10 13:53N 39°22' W 075°53'0 0.0
2017-Nov-10 13:20N 39°22' W 075°53'0 0.0
2017-Nov-10 12:56N 39°22' W 075°53'0 0.0
2017-Nov-10 12:29N 39°22' W 075°53'0 0.0
2017-Nov-10 11:53N 39°22' W 075°53'0 0.0
2017-Nov-10 11:29N 39°22' W 075°53'0 0.0
2017-Nov-10 10:56N 39°22' W 075°53'0 0.0
2017-Nov-10 10:20N 39°22' W 075°53'0 0.0
2017-Nov-10 09:59N 39°22' W 075°53'0 0.0
2017-Nov-10 09:23N 39°22' W 075°53'0 0.0
2017-Nov-10 08:53N 39°22' W 075°53'0 0.0
2017-Nov-10 08:29N 39°22' W 075°53'0 0.0
2017-Nov-10 07:53N 39°22' W 075°53'0 0.0
2017-Nov-10 07:29N 39°22' W 075°53'0 0.0
2017-Nov-10 06:59N 39°22' W 075°53'0 0.0
2017-Nov-10 06:29N 39°22' W 075°53'0 0.0
2017-Nov-10 05:59N 39°22' W 075°53'0 0.0
2017-Nov-10 05:29N 39°22' W 075°53'0 0.0
2017-Nov-10 04:50N 39°22' W 075°53'0 0.0
2017-Nov-10 04:29N 39°22' W 075°53'0 0.0
2017-Nov-10 03:59N 39°22' W 075°53'0 0.0
2017-Nov-10 03:30N 39°22' W 075°53'2 4.2
2017-Nov-10 03:00N 39°22' W 075°56'4 7.1
2017-Nov-10 02:30N 39°23' W 076°01'5 9.3
2017-Nov-10 02:00N 39°22' W 076°07'5 9.3
2017-Nov-10 01:30N 39°20' W 076°12'4 8.9
2017-Nov-10 01:00N 39°16' W 076°14'  
Track history (hours):
 
Tides and Currents Weather Stations Pressure Air Temp Water Temp Dewpoint Dewpoint Depression Visibility Wind Speed Wind Dir Waves Ship Positions

Ocean Pearl

Owner: Ocean Traveler LLC, Wilmington, DE. More information available from US FCC via Universal Licensing System and Coast Guard Vessel Documentation Center.

Last reported at 2017-Nov-11 19:10 UTC. Time now 2017-Nov-20 04:02 UTC.
Position N 38°58' W 076°27'.
Warning: this ship's position is 8 days out of date.

Length 19 m; draft 2.1 m.

Type: Pleasure craft. MMSI: 367144240.

Date/timePositionNaut miles runAvg speedWind from/ knotsBaromVisibWave heightAir tempDewpointWater temp
2017-Nov-11 19:10N 38°58' W 076°27'2 8.2
2017-Nov-11 18:58N 38°58' W 076°25'29 7.8
2017-Nov-11 15:14N 39°23' W 076°05'2 7.9
2017-Nov-11 15:01N 39°23' W 076°03'4 7.4
2017-Nov-11 14:31N 39°23' W 075°58'3 6.9
2017-Nov-11 14:00N 39°22' W 075°53'0 0.0
2017-Nov-11 13:28N 39°22' W 075°53'0 0.0
2017-Nov-11 12:58N 39°22' W 075°53'0 0.0
2017-Nov-11 12:28N 39°22' W 075°53'0 0.0
2017-Nov-11 11:58N 39°22' W 075°53'0 0.0
2017-Nov-11 11:25N 39°22' W 075°53'0 0.0
2017-Nov-11 10:58N 39°22' W 075°53'0 0.0
2017-Nov-11 10:25N 39°22' W 075°53'0 0.0
2017-Nov-11 09:58N 39°22' W 075°53'0 0.0
2017-Nov-11 09:28N 39°22' W 075°53'0 0.0
2017-Nov-11 08:58N 39°22' W 075°53'0 0.0
2017-Nov-11 08:28N 39°22' W 075°53'0 0.0
2017-Nov-11 07:58N 39°22' W 075°53'0 0.0
2017-Nov-11 07:28N 39°22' W 075°53'0 0.0
2017-Nov-11 06:46N 39°22' W 075°53'0 0.0
2017-Nov-11 06:28N 39°22' W 075°53'0 0.0
2017-Nov-11 05:58N 39°22' W 075°53'0 0.0
2017-Nov-11 05:28N 39°22' W 075°53'0 0.0
2017-Nov-11 04:58N 39°22' W 075°53'0 0.0
2017-Nov-11 04:28N 39°22' W 075°53'0 0.0
2017-Nov-11 04:01N 39°22' W 075°53'0 0.0
2017-Nov-11 03:28N 39°22' W 075°53'0 0.0
2017-Nov-11 02:58N 39°22' W 075°53'0 0.0
2017-Nov-11 02:31N 39°22' W 075°53'0 0.0
2017-Nov-11 01:58N 39°22' W 075°53'0 0.0
2017-Nov-11 01:22N 39°22' W 075°53'0 0.0
2017-Nov-11 00:58N 39°22' W 075°53'0 0.0
2017-Nov-11 00:28N 39°22' W 075°53'0 0.0
2017-Nov-10 23:55N 39°22' W 075°53'0 0.0
2017-Nov-10 23:28N 39°22' W 075°53'0 0.0
2017-Nov-10 22:58N 39°22' W 075°53'0 0.0
2017-Nov-10 22:28N 39°22' W 075°53'0 0.0
2017-Nov-10 21:58N 39°22' W 075°53'2 3.4
2017-Nov-10 21:25N 39°22' W 075°56'2 3.5
2017-Nov-10 20:47N 39°22' W 075°53'0 0.1
2017-Nov-10 20:29N 39°22' W 075°53'0 0.0
2017-Nov-10 19:59N 39°22' W 075°53'0 0.0
2017-Nov-10 19:26N 39°22' W 075°53'0 0.0
2017-Nov-10 18:59N 39°22' W 075°53'0 0.1
2017-Nov-10 18:20N 39°22' W 075°53'0 0.0
2017-Nov-10 17:59N 39°22' W 075°53'0 0.4
2017-Nov-10 17:08N 39°22' W 075°53'0 0.0
2017-Nov-10 16:56N 39°22' W 075°53'0 0.0
2017-Nov-10 16:08N 39°22' W 075°53'0 0.0
2017-Nov-10 15:59N 39°22' W 075°53'0 0.0
2017-Nov-10 15:20N 39°22' W 075°53'0 0.0
2017-Nov-10 14:44N 39°22' W 075°53'0 0.0
2017-Nov-10 14:14N 39°22' W 075°53'0 0.0
2017-Nov-10 13:53N 39°22' W 075°53'0 0.0
2017-Nov-10 13:20N 39°22' W 075°53'0 0.0
2017-Nov-10 12:56N 39°22' W 075°53'0 0.0
2017-Nov-10 12:29N 39°22' W 075°53'0 0.0
2017-Nov-10 11:53N 39°22' W 075°53'0 0.0
2017-Nov-10 11:29N 39°22' W 075°53'0 0.0
2017-Nov-10 10:56N 39°22' W 075°53'0 0.0
2017-Nov-10 10:20N 39°22' W 075°53'0 0.0
2017-Nov-10 09:59N 39°22' W 075°53'0 0.0
2017-Nov-10 09:23N 39°22' W 075°53'0 0.0
2017-Nov-10 08:53N 39°22' W 075°53'0 0.0
2017-Nov-10 08:29N 39°22' W 075°53'0 0.0
2017-Nov-10 07:53N 39°22' W 075°53'0 0.0
2017-Nov-10 07:29N 39°22' W 075°53'0 0.0
2017-Nov-10 06:59N 39°22' W 075°53'0 0.0
2017-Nov-10 06:29N 39°22' W 075°53'0 0.0
2017-Nov-10 05:59N 39°22' W 075°53'0 0.0
2017-Nov-10 05:29N 39°22' W 075°53'0 0.0
2017-Nov-10 04:50N 39°22' W 075°53'0 0.0
2017-Nov-10 04:29N 39°22' W 075°53'0 0.0
2017-Nov-10 03:59N 39°22' W 075°53'0 0.0
2017-Nov-10 03:30N 39°22' W 075°53'2 4.2
2017-Nov-10 03:00N 39°22' W 075°56'4 7.1
2017-Nov-10 02:30N 39°23' W 076°01'5 9.3
2017-Nov-10 02:00N 39°22' W 076°07'5 9.3
2017-Nov-10 01:30N 39°20' W 076°12'4 8.9
2017-Nov-10 01:00N 39°16' W 076°14'  

Dump ship's entire track history